sensor_id;sensor_type;location;lat;lon;timestamp;pressure;altitude;pressure_sealevel;temperature
69435;BMP180;56625;54.322;18.582;2023-04-24T00:00:17;99954.40;;;13.20
69435;BMP180;56625;54.322;18.582;2023-04-24T00:03:05;99955.20;;;13.20
69435;BMP180;56625;54.322;18.582;2023-04-24T00:05:34;99965.20;;;13.10
69435;BMP180;56625;54.322;18.582;2023-04-24T00:08:02;99960.00;;;13.00
69435;BMP180;56625;54.322;18.582;2023-04-24T00:10:30;99961.80;;;13.00
69435;BMP180;56625;54.322;18.582;2023-04-24T00:12:58;99955.60;;;13.00
69435;BMP180;56625;54.322;18.582;2023-04-24T00:15:26;99956.80;;;13.10
69435;BMP180;56625;54.322;18.582;2023-04-24T00:17:54;99957.40;;;13.12
69435;BMP180;56625;54.322;18.582;2023-04-24T00:20:22;99957.20;;;13.16
69435;BMP180;56625;54.322;18.582;2023-04-24T00:22:50;99954.80;;;13.20
69435;BMP180;56625;54.322;18.582;2023-04-24T00:25:18;99952.60;;;13.20
69435;BMP180;56625;54.322;18.582;2023-04-24T00:27:46;99954.20;;;13.20
69435;BMP180;56625;54.322;18.582;2023-04-24T00:30:13;99955.60;;;13.10
69435;BMP180;56625;54.322;18.582;2023-04-24T00:32:41;99953.60;;;13.10
69435;BMP180;56625;54.322;18.582;2023-04-24T00:35:09;99951.20;;;13.10
69435;BMP180;56625;54.322;18.582;2023-04-24T00:37:38;99951.60;;;13.00
69435;BMP180;56625;54.322;18.582;2023-04-24T00:40:06;99954.00;;;13.00
69435;BMP180;56625;54.322;18.582;2023-04-24T00:42:34;99949.60;;;12.94
69435;BMP180;56625;54.322;18.582;2023-04-24T00:45:04;99951.20;;;12.90
69435;BMP180;56625;54.322;18.582;2023-04-24T00:47:33;99944.80;;;12.90
69435;BMP180;56625;54.322;18.582;2023-04-24T00:50:06;99940.00;;;12.88
69435;BMP180;56625;54.322;18.582;2023-04-24T00:52:34;99944.60;;;12.80
69435;BMP180;56625;54.322;18.582;2023-04-24T00:55:02;99944.80;;;12.80
69435;BMP180;56625;54.322;18.582;2023-04-24T00:57:30;99946.00;;;12.70
69435;BMP180;56625;54.322;18.582;2023-04-24T00:59:58;99944.40;;;12.66
69435;BMP180;56625;54.322;18.582;2023-04-24T01:02:26;99946.60;;;12.52
69435;BMP180;56625;54.322;18.582;2023-04-24T01:04:55;99946.20;;;12.50
69435;BMP180;56625;54.322;18.582;2023-04-24T01:07:23;99940.00;;;12.40
69435;BMP180;56625;54.322;18.582;2023-04-24T01:09:51;99946.60;;;12.32
69435;BMP180;56625;54.322;18.582;2023-04-24T01:12:19;99945.80;;;12.30
69435;BMP180;56625;54.322;18.582;2023-04-24T01:14:47;99943.60;;;12.30
69435;BMP180;56625;54.322;18.582;2023-04-24T01:17:15;99942.40;;;12.30
69435;BMP180;56625;54.322;18.582;2023-04-24T01:19:43;99937.00;;;12.20
69435;BMP180;56625;54.322;18.582;2023-04-24T01:22:15;99935.60;;;12.20
69435;BMP180;56625;54.322;18.582;2023-04-24T01:24:43;99934.60;;;12.20
69435;BMP180;56625;54.322;18.582;2023-04-24T01:27:12;99939.40;;;12.10
69435;BMP180;56625;54.322;18.582;2023-04-24T01:29:41;99941.60;;;12.10
69435;BMP180;56625;54.322;18.582;2023-04-24T01:32:10;99938.40;;;12.10
69435;BMP180;56625;54.322;18.582;2023-04-24T01:34:40;99940.40;;;12.10
69435;BMP180;56625;54.322;18.582;2023-04-24T01:37:08;99940.60;;;12.10
69435;BMP180;56625;54.322;18.582;2023-04-24T01:39:36;99937.60;;;12.10
69435;BMP180;56625;54.322;18.582;2023-04-24T01:42:05;99938.00;;;12.10
69435;BMP180;56625;54.322;18.582;2023-04-24T01:44:33;99939.00;;;12.10
69435;BMP180;56625;54.322;18.582;2023-04-24T01:47:01;99931.80;;;12.10
69435;BMP180;56625;54.322;18.582;2023-04-24T01:49:29;99933.00;;;12.10
69435;BMP180;56625;54.322;18.582;2023-04-24T01:51:57;99929.20;;;12.20
69435;BMP180;56625;54.322;18.582;2023-04-24T01:54:25;99923.00;;;12.20
69435;BMP180;56625;54.322;18.582;2023-04-24T01:56:53;99920.40;;;12.10
69435;BMP180;56625;54.322;18.582;2023-04-24T01:59:23;99924.40;;;12.00
69435;BMP180;56625;54.322;18.582;2023-04-24T02:01:51;99918.00;;;12.00
69435;BMP180;56625;54.322;18.582;2023-04-24T02:04:19;99914.80;;;11.94
69435;BMP180;56625;54.322;18.582;2023-04-24T02:06:47;99913.80;;;12.00
69435;BMP180;56625;54.322;18.582;2023-04-24T02:09:15;99909.60;;;11.90
69435;BMP180;56625;54.322;18.582;2023-04-24T02:11:43;99908.60;;;12.00
69435;BMP180;56625;54.322;18.582;2023-04-24T02:14:10;99910.60;;;12.10
69435;BMP180;56625;54.322;18.582;2023-04-24T02:16:38;99899.80;;;12.00
69435;BMP180;56625;54.322;18.582;2023-04-24T02:19:06;99898.00;;;12.10
69435;BMP180;56625;54.322;18.582;2023-04-24T02:21:34;99893.40;;;12.10
69435;BMP180;56625;54.322;18.582;2023-04-24T02:24:02;99891.20;;;12.10
69435;BMP180;56625;54.322;18.582;2023-04-24T02:26:30;99885.00;;;12.10
69435;BMP180;56625;54.322;18.582;2023-04-24T02:28:59;99880.40;;;12.10
69435;BMP180;56625;54.322;18.582;2023-04-24T02:31:27;99874.00;;;12.00
69435;BMP180;56625;54.322;18.582;2023-04-24T02:33:55;99879.60;;;12.00
69435;BMP180;56625;54.322;18.582;2023-04-24T02:36:23;99874.00;;;11.96
69435;BMP180;56625;54.322;18.582;2023-04-24T02:38:51;99874.40;;;11.94
69435;BMP180;56625;54.322;18.582;2023-04-24T02:41:19;99877.60;;;11.90
69435;BMP180;56625;54.322;18.582;2023-04-24T02:43:47;99877.00;;;11.90
69435;BMP180;56625;54.322;18.582;2023-04-24T02:46:15;99871.20;;;11.80
69435;BMP180;56625;54.322;18.582;2023-04-24T02:48:43;99868.80;;;11.80
69435;BMP180;56625;54.322;18.582;2023-04-24T02:51:11;99874.80;;;11.78
69435;BMP180;56625;54.322;18.582;2023-04-24T02:53:39;99869.80;;;11.70
69435;BMP180;56625;54.322;18.582;2023-04-24T02:56:06;99868.40;;;11.70
69435;BMP180;56625;54.322;18.582;2023-04-24T02:58:34;99858.00;;;11.70
69435;BMP180;56625;54.322;18.582;2023-04-24T03:01:03;99856.40;;;11.70
69435;BMP180;56625;54.322;18.582;2023-04-24T03:03:31;99856.80;;;11.70
69435;BMP180;56625;54.322;18.582;2023-04-24T03:05:59;99854.00;;;11.70
69435;BMP180;56625;54.322;18.582;2023-04-24T03:08:27;99849.80;;;11.70
69435;BMP180;56625;54.322;18.582;2023-04-24T03:10:55;99849.20;;;11.70
69435;BMP180;56625;54.322;18.582;2023-04-24T03:13:23;99844.40;;;11.70
69435;BMP180;56625;54.322;18.582;2023-04-24T03:15:51;99843.80;;;11.70
69435;BMP180;56625;54.322;18.582;2023-04-24T03:18:19;99846.60;;;11.70
69435;BMP180;56625;54.322;18.582;2023-04-24T03:20:47;99848.40;;;11.70
69435;BMP180;56625;54.322;18.582;2023-04-24T03:23:15;99849.20;;;11.70
69435;BMP180;56625;54.322;18.582;2023-04-24T03:25:43;99852.00;;;11.70
69435;BMP180;56625;54.322;18.582;2023-04-24T03:28:11;99852.00;;;11.70
69435;BMP180;56625;54.322;18.582;2023-04-24T03:30:39;99850.00;;;11.70
69435;BMP180;56625;54.322;18.582;2023-04-24T03:33:07;99850.20;;;11.80
69435;BMP180;56625;54.322;18.582;2023-04-24T03:35:35;99848.80;;;11.80
69435;BMP180;56625;54.322;18.582;2023-04-24T03:38:03;99847.00;;;11.78
69435;BMP180;56625;54.322;18.582;2023-04-24T03:40:34;99847.00;;;11.72
69435;BMP180;56625;54.322;18.582;2023-04-24T03:43:03;99845.40;;;11.60
69435;BMP180;56625;54.322;18.582;2023-04-24T03:45:31;99843.00;;;11.50
69435;BMP180;56625;54.322;18.582;2023-04-24T03:47:58;99848.20;;;11.40
69435;BMP180;56625;54.322;18.582;2023-04-24T03:50:26;99847.80;;;11.40
69435;BMP180;56625;54.322;18.582;2023-04-24T03:52:56;99849.80;;;11.30
69435;BMP180;56625;54.322;18.582;2023-04-24T03:55:24;99845.20;;;11.30
69435;BMP180;56625;54.322;18.582;2023-04-24T03:57:52;99850.60;;;11.26
69435;BMP180;56625;54.322;18.582;2023-04-24T04:00:20;99847.80;;;11.20
69435;BMP180;56625;54.322;18.582;2023-04-24T04:02:48;99850.60;;;11.10
69435;BMP180;56625;54.322;18.582;2023-04-24T04:05:16;99852.60;;;11.10
69435;BMP180;56625;54.322;18.582;2023-04-24T04:07:44;99841.20;;;11.00
69435;BMP180;56625;54.322;18.582;2023-04-24T04:10:12;99840.00;;;10.90
69435;BMP180;56625;54.322;18.582;2023-04-24T04:12:40;99842.20;;;10.90
69435;BMP180;56625;54.322;18.582;2023-04-24T04:15:08;99847.60;;;10.90
69435;BMP180;56625;54.322;18.582;2023-04-24T04:17:36;99842.20;;;10.90
69435;BMP180;56625;54.322;18.582;2023-04-24T04:20:07;99850.20;;;11.00
69435;BMP180;56625;54.322;18.582;2023-04-24T04:22:37;99848.00;;;11.10
69435;BMP180;56625;54.322;18.582;2023-04-24T04:25:05;99851.00;;;11.10
69435;BMP180;56625;54.322;18.582;2023-04-24T04:27:34;99849.20;;;11.08
69435;BMP180;56625;54.322;18.582;2023-04-24T04:30:03;99854.60;;;11.10
69435;BMP180;56625;54.322;18.582;2023-04-24T04:32:32;99857.20;;;11.16
69435;BMP180;56625;54.322;18.582;2023-04-24T04:35:01;99852.20;;;11.20
69435;BMP180;56625;54.322;18.582;2023-04-24T04:37:33;99852.60;;;11.30
69435;BMP180;56625;54.322;18.582;2023-04-24T04:40:02;99851.80;;;11.40
69435;BMP180;56625;54.322;18.582;2023-04-24T04:42:37;99858.40;;;11.40
69435;BMP180;56625;54.322;18.582;2023-04-24T04:45:08;99854.80;;;11.30
69435;BMP180;56625;54.322;18.582;2023-04-24T04:47:37;99849.00;;;11.30
69435;BMP180;56625;54.322;18.582;2023-04-24T04:50:05;99855.20;;;11.40
69435;BMP180;56625;54.322;18.582;2023-04-24T04:52:33;99856.20;;;11.48
69435;BMP180;56625;54.322;18.582;2023-04-24T04:55:02;99846.20;;;11.50
69435;BMP180;56625;54.322;18.582;2023-04-24T04:57:30;99850.60;;;11.60
69435;BMP180;56625;54.322;18.582;2023-04-24T04:59:58;99846.60;;;11.60
69435;BMP180;56625;54.322;18.582;2023-04-24T05:02:25;99851.60;;;11.60
69435;BMP180;56625;54.322;18.582;2023-04-24T05:04:53;99850.80;;;11.60
69435;BMP180;56625;54.322;18.582;2023-04-24T05:07:22;99845.40;;;11.50
69435;BMP180;56625;54.322;18.582;2023-04-24T05:09:49;99836.80;;;11.60
69435;BMP180;56625;54.322;18.582;2023-04-24T05:12:19;99833.20;;;11.70
69435;BMP180;56625;54.322;18.582;2023-04-24T05:14:46;99837.40;;;11.90
69435;BMP180;56625;54.322;18.582;2023-04-24T05:17:14;99838.00;;;12.00
69435;BMP180;56625;54.322;18.582;2023-04-24T05:19:42;99833.20;;;12.10
69435;BMP180;56625;54.322;18.582;2023-04-24T05:22:11;99834.40;;;12.10
69435;BMP180;56625;54.322;18.582;2023-04-24T05:24:39;99830.40;;;12.00
69435;BMP180;56625;54.322;18.582;2023-04-24T05:27:07;99827.20;;;12.00
69435;BMP180;56625;54.322;18.582;2023-04-24T05:29:35;99827.20;;;12.10
69435;BMP180;56625;54.322;18.582;2023-04-24T05:32:03;99827.80;;;12.10
69435;BMP180;56625;54.322;18.582;2023-04-24T05:34:31;99828.60;;;12.04
69435;BMP180;56625;54.322;18.582;2023-04-24T05:36:59;99826.60;;;12.00
69435;BMP180;56625;54.322;18.582;2023-04-24T05:39:27;99830.60;;;12.00
69435;BMP180;56625;54.322;18.582;2023-04-24T05:41:55;99831.80;;;12.00
69435;BMP180;56625;54.322;18.582;2023-04-24T05:44:25;99829.60;;;11.90
69435;BMP180;56625;54.322;18.582;2023-04-24T05:46:53;99829.40;;;11.90
69435;BMP180;56625;54.322;18.582;2023-04-24T05:49:23;99824.80;;;11.90
69435;BMP180;56625;54.322;18.582;2023-04-24T05:51:51;99821.20;;;12.00
69435;BMP180;56625;54.322;18.582;2023-04-24T05:54:18;99820.40;;;11.96
69435;BMP180;56625;54.322;18.582;2023-04-24T05:56:49;99826.80;;;12.00
69435;BMP180;56625;54.322;18.582;2023-04-24T05:59:18;99830.40;;;12.00
69435;BMP180;56625;54.322;18.582;2023-04-24T06:01:46;99825.80;;;12.00
69435;BMP180;56625;54.322;18.582;2023-04-24T06:04:14;99825.00;;;11.90
69435;BMP180;56625;54.322;18.582;2023-04-24T06:06:42;99824.60;;;12.02
69435;BMP180;56625;54.322;18.582;2023-04-24T06:09:10;99824.80;;;12.20
69435;BMP180;56625;54.322;18.582;2023-04-24T06:11:39;99825.00;;;12.40
69435;BMP180;56625;54.322;18.582;2023-04-24T06:14:07;99822.80;;;12.54
69435;BMP180;56625;54.322;18.582;2023-04-24T06:16:35;99823.00;;;12.78
69435;BMP180;56625;54.322;18.582;2023-04-24T06:19:02;99816.20;;;12.76
69435;BMP180;56625;54.322;18.582;2023-04-24T06:21:30;99812.00;;;12.76
69435;BMP180;56625;54.322;18.582;2023-04-24T06:23:59;99817.00;;;12.80
69435;BMP180;56625;54.322;18.582;2023-04-24T06:26:27;99801.80;;;12.82
69435;BMP180;56625;54.322;18.582;2023-04-24T06:28:55;99803.20;;;12.82
69435;BMP180;56625;54.322;18.582;2023-04-24T06:31:23;99809.80;;;12.80
69435;BMP180;56625;54.322;18.582;2023-04-24T06:33:51;99806.20;;;12.70
69435;BMP180;56625;54.322;18.582;2023-04-24T06:36:19;99810.20;;;12.74
69435;BMP180;56625;54.322;18.582;2023-04-24T06:38:47;99818.80;;;12.70
69435;BMP180;56625;54.322;18.582;2023-04-24T06:42:10;99805.80;;;12.60
69435;BMP180;56625;54.322;18.582;2023-04-24T06:44:40;99808.00;;;12.60
69435;BMP180;56625;54.322;18.582;2023-04-24T06:47:15;99800.80;;;12.58
69435;BMP180;56625;54.322;18.582;2023-04-24T06:49:43;99801.00;;;12.44
69435;BMP180;56625;54.322;18.582;2023-04-24T06:52:14;99794.20;;;12.30
69435;BMP180;56625;54.322;18.582;2023-04-24T06:55:11;99791.20;;;12.20
69435;BMP180;56625;54.322;18.582;2023-04-24T06:57:46;99798.60;;;12.12
69435;BMP180;56625;54.322;18.582;2023-04-24T07:00:25;99801.60;;;12.10
69435;BMP180;56625;54.322;18.582;2023-04-24T07:02:57;99801.60;;;12.00
69435;BMP180;56625;54.322;18.582;2023-04-24T07:05:32;99795.60;;;12.00
69435;BMP180;56625;54.322;18.582;2023-04-24T07:08:18;99793.00;;;11.92
69435;BMP180;56625;54.322;18.582;2023-04-24T07:10:55;99791.60;;;11.90
69435;BMP180;56625;54.322;18.582;2023-04-24T07:13:35;99788.80;;;11.90
69435;BMP180;56625;54.322;18.582;2023-04-24T07:16:15;99781.00;;;11.92
69435;BMP180;56625;54.322;18.582;2023-04-24T07:18:42;99777.40;;;12.00
69435;BMP180;56625;54.322;18.582;2023-04-24T07:21:11;99779.40;;;12.10
69435;BMP180;56625;54.322;18.582;2023-04-24T07:23:39;99777.60;;;12.20
69435;BMP180;56625;54.322;18.582;2023-04-24T07:26:14;99785.00;;;12.24
69435;BMP180;56625;54.322;18.582;2023-04-24T07:29:02;99778.80;;;12.30
69435;BMP180;56625;54.322;18.582;2023-04-24T07:31:33;99773.40;;;12.30
69435;BMP180;56625;54.322;18.582;2023-04-24T07:34:03;99770.40;;;12.30
69435;BMP180;56625;54.322;18.582;2023-04-24T07:36:38;99762.20;;;12.30
69435;BMP180;56625;54.322;18.582;2023-04-24T07:39:07;99763.80;;;12.34
69435;BMP180;56625;54.322;18.582;2023-04-24T07:41:36;99764.80;;;12.40
69435;BMP180;56625;54.322;18.582;2023-04-24T07:44:04;99764.20;;;12.40
69435;BMP180;56625;54.322;18.582;2023-04-24T07:46:32;99762.80;;;12.40
69435;BMP180;56625;54.322;18.582;2023-04-24T07:49:00;99764.00;;;12.50
69435;BMP180;56625;54.322;18.582;2023-04-24T07:51:40;99760.40;;;12.56
69435;BMP180;56625;54.322;18.582;2023-04-24T07:54:09;99754.40;;;12.58
69435;BMP180;56625;54.322;18.582;2023-04-24T07:56:40;99754.00;;;12.60
69435;BMP180;56625;54.322;18.582;2023-04-24T07:59:12;99756.00;;;12.60
69435;BMP180;56625;54.322;18.582;2023-04-24T08:01:57;99759.00;;;12.50
69435;BMP180;56625;54.322;18.582;2023-04-24T08:04:41;99757.80;;;12.60
69435;BMP180;56625;54.322;18.582;2023-04-24T08:07:12;99759.00;;;12.70
69435;BMP180;56625;54.322;18.582;2023-04-24T08:09:49;99754.60;;;12.70
69435;BMP180;56625;54.322;18.582;2023-04-24T08:12:17;99751.80;;;12.74
69435;BMP180;56625;54.322;18.582;2023-04-24T08:14:45;99749.80;;;12.90
69435;BMP180;56625;54.322;18.582;2023-04-24T08:17:13;99748.20;;;12.96
69435;BMP180;56625;54.322;18.582;2023-04-24T08:19:40;99744.80;;;13.00
69435;BMP180;56625;54.322;18.582;2023-04-24T08:22:15;99741.20;;;13.14
69435;BMP180;56625;54.322;18.582;2023-04-24T08:24:43;99735.80;;;13.20
69435;BMP180;56625;54.322;18.582;2023-04-24T08:27:11;99750.40;;;13.30
69435;BMP180;56625;54.322;18.582;2023-04-24T08:29:39;99749.80;;;13.40
69435;BMP180;56625;54.322;18.582;2023-04-24T08:32:07;99745.20;;;13.60
69435;BMP180;56625;54.322;18.582;2023-04-24T08:34:35;99738.20;;;13.86
69435;BMP180;56625;54.322;18.582;2023-04-24T08:37:03;99732.00;;;14.10
69435;BMP180;56625;54.322;18.582;2023-04-24T08:39:31;99728.40;;;14.30
69435;BMP180;56625;54.322;18.582;2023-04-24T08:42:00;99735.20;;;14.54
69435;BMP180;56625;54.322;18.582;2023-04-24T08:44:34;99736.80;;;14.70
69435;BMP180;56625;54.322;18.582;2023-04-24T08:47:04;99743.80;;;14.80
69435;BMP180;56625;54.322;18.582;2023-04-24T08:49:33;99743.00;;;14.92
69435;BMP180;56625;54.322;18.582;2023-04-24T08:52:05;99740.20;;;15.20
69435;BMP180;56625;54.322;18.582;2023-04-24T08:54:35;99736.80;;;15.24
69435;BMP180;56625;54.322;18.582;2023-04-24T08:57:06;99738.20;;;15.08
69435;BMP180;56625;54.322;18.582;2023-04-24T08:59:35;99745.20;;;15.00
69435;BMP180;56625;54.322;18.582;2023-04-24T09:02:04;99741.00;;;14.92
69435;BMP180;56625;54.322;18.582;2023-04-24T09:04:34;99735.20;;;15.10
69435;BMP180;56625;54.322;18.582;2023-04-24T09:07:06;99737.20;;;15.20
69435;BMP180;56625;54.322;18.582;2023-04-24T09:09:35;99734.40;;;15.24
69435;BMP180;56625;54.322;18.582;2023-04-24T09:12:03;99741.40;;;15.30
69435;BMP180;56625;54.322;18.582;2023-04-24T09:14:32;99734.40;;;15.20
69435;BMP180;56625;54.322;18.582;2023-04-24T09:17:00;99734.40;;;15.30
69435;BMP180;56625;54.322;18.582;2023-04-24T09:19:32;99731.60;;;15.20
69435;BMP180;56625;54.322;18.582;2023-04-24T09:22:21;99732.00;;;15.10
69435;BMP180;56625;54.322;18.582;2023-04-24T09:25:05;99736.40;;;15.10
69435;BMP180;56625;54.322;18.582;2023-04-24T09:27:35;99735.00;;;15.18
69435;BMP180;56625;54.322;18.582;2023-04-24T09:30:03;99727.20;;;15.20
69435;BMP180;56625;54.322;18.582;2023-04-24T09:32:31;99722.60;;;15.30
69435;BMP180;56625;54.322;18.582;2023-04-24T09:35:15;99717.40;;;15.40
69435;BMP180;56625;54.322;18.582;2023-04-24T09:37:46;99718.20;;;15.30
69435;BMP180;56625;54.322;18.582;2023-04-24T09:40:20;99714.80;;;15.30
69435;BMP180;56625;54.322;18.582;2023-04-24T09:42:55;99708.80;;;15.40
69435;BMP180;56625;54.322;18.582;2023-04-24T09:45:36;99701.00;;;15.40
69435;BMP180;56625;54.322;18.582;2023-04-24T09:48:05;99694.80;;;15.60
69435;BMP180;56625;54.322;18.582;2023-04-24T09:50:34;99692.00;;;15.76
69435;BMP180;56625;54.322;18.582;2023-04-24T09:53:04;99694.00;;;15.80
69435;BMP180;56625;54.322;18.582;2023-04-24T09:55:40;99698.20;;;15.90
69435;BMP180;56625;54.322;18.582;2023-04-24T09:58:12;99691.00;;;15.90
69435;BMP180;56625;54.322;18.582;2023-04-24T10:00:40;99693.80;;;16.00
69435;BMP180;56625;54.322;18.582;2023-04-24T10:03:08;99695.60;;;16.10
69435;BMP180;56625;54.322;18.582;2023-04-24T10:05:38;99696.60;;;16.26
69435;BMP180;56625;54.322;18.582;2023-04-24T10:08:09;99680.60;;;16.30
69435;BMP180;56625;54.322;18.582;2023-04-24T10:10:44;99686.00;;;16.60
69435;BMP180;56625;54.322;18.582;2023-04-24T10:13:14;99683.40;;;17.06
69435;BMP180;56625;54.322;18.582;2023-04-24T10:15:43;99679.20;;;17.26
69435;BMP180;56625;54.322;18.582;2023-04-24T10:18:11;99674.00;;;17.20
69435;BMP180;56625;54.322;18.582;2023-04-24T10:20:40;99671.60;;;17.50
69435;BMP180;56625;54.322;18.582;2023-04-24T10:23:09;99666.40;;;17.80
69435;BMP180;56625;54.322;18.582;2023-04-24T10:25:37;99659.40;;;18.08
69435;BMP180;56625;54.322;18.582;2023-04-24T10:28:05;99661.60;;;18.00
69435;BMP180;56625;54.322;18.582;2023-04-24T10:30:35;99658.80;;;18.10
69435;BMP180;56625;54.322;18.582;2023-04-24T10:33:07;99661.80;;;18.42
69435;BMP180;56625;54.322;18.582;2023-04-24T10:35:41;99653.40;;;18.70
69435;BMP180;56625;54.322;18.582;2023-04-24T10:38:14;99649.20;;;18.90
69435;BMP180;56625;54.322;18.582;2023-04-24T10:40:43;99646.00;;;18.80
69435;BMP180;56625;54.322;18.582;2023-04-24T10:43:17;99650.60;;;18.80
69435;BMP180;56625;54.322;18.582;2023-04-24T10:46:06;99645.20;;;18.70
69435;BMP180;56625;54.322;18.582;2023-04-24T10:48:34;99647.40;;;19.00
69435;BMP180;56625;54.322;18.582;2023-04-24T10:51:05;99644.60;;;19.00
69435;BMP180;56625;54.322;18.582;2023-04-24T10:53:34;99646.00;;;19.00
69435;BMP180;56625;54.322;18.582;2023-04-24T10:56:08;99643.00;;;19.00
69435;BMP180;56625;54.322;18.582;2023-04-24T10:58:49;99646.40;;;19.06
69435;BMP180;56625;54.322;18.582;2023-04-24T11:01:31;99644.20;;;19.10
69435;BMP180;56625;54.322;18.582;2023-04-24T11:04:03;99634.80;;;19.16
69435;BMP180;56625;54.322;18.582;2023-04-24T11:06:36;99638.00;;;19.20
69435;BMP180;56625;54.322;18.582;2023-04-24T11:09:07;99637.40;;;19.26
69435;BMP180;56625;54.322;18.582;2023-04-24T11:11:37;99633.60;;;19.30
69435;BMP180;56625;54.322;18.582;2023-04-24T11:14:07;99631.40;;;19.34
69435;BMP180;56625;54.322;18.582;2023-04-24T11:16:42;99634.00;;;19.30
69435;BMP180;56625;54.322;18.582;2023-04-24T11:21:48;99636.20;;;19.30
69435;BMP180;56625;54.322;18.582;2023-04-24T11:27:13;99625.00;;;19.40
69435;BMP180;56625;54.322;18.582;2023-04-24T11:29:59;99622.40;;;19.50
69435;BMP180;56625;54.322;18.582;2023-04-24T11:32:42;99624.40;;;19.60
69435;BMP180;56625;54.322;18.582;2023-04-24T11:35:19;99619.00;;;19.60
69435;BMP180;56625;54.322;18.582;2023-04-24T11:37:52;99615.60;;;19.60
69435;BMP180;56625;54.322;18.582;2023-04-24T11:40:23;99617.40;;;19.70
69435;BMP180;56625;54.322;18.582;2023-04-24T11:42:52;99615.60;;;19.90
69435;BMP180;56625;54.322;18.582;2023-04-24T11:45:29;99606.40;;;20.16
69435;BMP180;56625;54.322;18.582;2023-04-24T11:47:57;99601.60;;;20.40
69435;BMP180;56625;54.322;18.582;2023-04-24T11:50:27;99602.60;;;20.60
69435;BMP180;56625;54.322;18.582;2023-04-24T11:52:56;99597.20;;;20.70
69435;BMP180;56625;54.322;18.582;2023-04-24T11:55:27;99590.20;;;20.70
69435;BMP180;56625;54.322;18.582;2023-04-24T11:57:58;99596.40;;;20.70
69435;BMP180;56625;54.322;18.582;2023-04-24T12:00:33;99589.20;;;20.60
69435;BMP180;56625;54.322;18.582;2023-04-24T12:03:11;99595.20;;;20.66
69435;BMP180;56625;54.322;18.582;2023-04-24T12:05:40;99589.00;;;20.70
69435;BMP180;56625;54.322;18.582;2023-04-24T12:08:08;99585.60;;;20.70
69435;BMP180;56625;54.322;18.582;2023-04-24T12:10:37;99584.40;;;20.60
69435;BMP180;56625;54.322;18.582;2023-04-24T12:13:05;99584.00;;;20.50
69435;BMP180;56625;54.322;18.582;2023-04-24T12:15:33;99583.20;;;20.16
69435;BMP180;56625;54.322;18.582;2023-04-24T12:18:01;99579.80;;;20.04
69435;BMP180;56625;54.322;18.582;2023-04-24T12:20:32;99585.40;;;20.04
69435;BMP180;56625;54.322;18.582;2023-04-24T12:23:01;99587.20;;;19.98
69435;BMP180;56625;54.322;18.582;2023-04-24T12:25:34;99584.60;;;19.80
69435;BMP180;56625;54.322;18.582;2023-04-24T12:30:43;99570.80;;;19.70
69435;BMP180;56625;54.322;18.582;2023-04-24T12:33:21;99574.60;;;19.80
69435;BMP180;56625;54.322;18.582;2023-04-24T12:35:52;99573.80;;;19.90
69435;BMP180;56625;54.322;18.582;2023-04-24T12:38:26;99570.20;;;19.92
69435;BMP180;56625;54.322;18.582;2023-04-24T12:41:14;99563.60;;;19.90
69435;BMP180;56625;54.322;18.582;2023-04-24T12:43:59;99554.40;;;19.86
69435;BMP180;56625;54.322;18.582;2023-04-24T12:46:32;99561.20;;;19.82
69435;BMP180;56625;54.322;18.582;2023-04-24T12:49:01;99561.20;;;19.72
69435;BMP180;56625;54.322;18.582;2023-04-24T12:51:31;99556.20;;;19.60
69435;BMP180;56625;54.322;18.582;2023-04-24T12:54:00;99553.60;;;19.50
69435;BMP180;56625;54.322;18.582;2023-04-24T12:56:28;99552.60;;;19.50
69435;BMP180;56625;54.322;18.582;2023-04-24T12:58:58;99548.20;;;19.50
69435;BMP180;56625;54.322;18.582;2023-04-24T13:01:27;99544.40;;;19.44
69435;BMP180;56625;54.322;18.582;2023-04-24T13:03:56;99536.80;;;19.30
69435;BMP180;56625;54.322;18.582;2023-04-24T13:06:27;99538.60;;;19.30
69435;BMP180;56625;54.322;18.582;2023-04-24T13:08:57;99533.40;;;19.38
69435;BMP180;56625;54.322;18.582;2023-04-24T13:11:25;99524.00;;;19.38
69435;BMP180;56625;54.322;18.582;2023-04-24T13:13:54;99521.00;;;19.40
69435;BMP180;56625;54.322;18.582;2023-04-24T13:16:22;99521.80;;;19.50
69435;BMP180;56625;54.322;18.582;2023-04-24T13:18:51;99518.20;;;19.60
69435;BMP180;56625;54.322;18.582;2023-04-24T13:21:19;99510.80;;;19.68
69435;BMP180;56625;54.322;18.582;2023-04-24T13:23:47;99512.80;;;19.70
69435;BMP180;56625;54.322;18.582;2023-04-24T13:26:15;99506.80;;;19.70
69435;BMP180;56625;54.322;18.582;2023-04-24T13:28:42;99495.00;;;19.90
69435;BMP180;56625;54.322;18.582;2023-04-24T13:31:10;99492.60;;;20.08
69435;BMP180;56625;54.322;18.582;2023-04-24T13:33:41;99482.40;;;20.20
69435;BMP180;56625;54.322;18.582;2023-04-24T13:36:09;99483.40;;;20.40
69435;BMP180;56625;54.322;18.582;2023-04-24T13:38:37;99471.40;;;20.60
69435;BMP180;56625;54.322;18.582;2023-04-24T13:41:05;99474.40;;;20.70
69435;BMP180;56625;54.322;18.582;2023-04-24T13:43:33;99463.60;;;20.80
69435;BMP180;56625;54.322;18.582;2023-04-24T13:46:01;99465.40;;;20.70
69435;BMP180;56625;54.322;18.582;2023-04-24T13:48:30;99465.80;;;20.60
69435;BMP180;56625;54.322;18.582;2023-04-24T13:50:58;99459.00;;;20.60
69435;BMP180;56625;54.322;18.582;2023-04-24T13:53:27;99466.20;;;20.66
69435;BMP180;56625;54.322;18.582;2023-04-24T13:55:55;99460.80;;;20.62
69435;BMP180;56625;54.322;18.582;2023-04-24T13:58:32;99460.00;;;20.48
69435;BMP180;56625;54.322;18.582;2023-04-24T14:01:03;99463.60;;;20.34
69435;BMP180;56625;54.322;18.582;2023-04-24T14:03:33;99453.60;;;20.26
69435;BMP180;56625;54.322;18.582;2023-04-24T14:06:01;99449.00;;;20.34
69435;BMP180;56625;54.322;18.582;2023-04-24T14:08:30;99440.40;;;20.60
69435;BMP180;56625;54.322;18.582;2023-04-24T14:10:58;99425.60;;;20.72
69435;BMP180;56625;54.322;18.582;2023-04-24T14:13:27;99418.80;;;20.80
69435;BMP180;56625;54.322;18.582;2023-04-24T14:15:55;99421.00;;;20.90
69435;BMP180;56625;54.322;18.582;2023-04-24T14:18:23;99434.40;;;21.00
69435;BMP180;56625;54.322;18.582;2023-04-24T14:20:51;99431.20;;;21.02